createdAt,value
2018-08-28T00:02:07.499Z,15.20
2018-08-28T00:04:35.747Z,15.20
2018-08-28T00:07:03.903Z,15.20
2018-08-28T00:09:32.017Z,15.30
2018-08-28T00:12:00.126Z,15.20
2018-08-28T00:14:28.237Z,15.20
2018-08-28T00:16:56.393Z,15.20
2018-08-28T00:19:24.506Z,15.10
2018-08-28T00:21:52.638Z,15.10
2018-08-28T00:24:20.734Z,15.10
2018-08-28T00:26:48.826Z,15.00
2018-08-28T00:29:16.922Z,15.00
2018-08-28T00:31:45.018Z,15.00
2018-08-28T00:34:13.144Z,14.90
2018-08-28T00:36:41.380Z,14.90
2018-08-28T00:39:09.523Z,14.80
2018-08-28T00:41:37.627Z,14.70
2018-08-28T00:44:05.723Z,14.70
2018-08-28T00:46:35.986Z,14.70
2018-08-28T00:49:04.458Z,14.60
2018-08-28T00:51:32.801Z,14.60
2018-08-28T00:54:01.037Z,14.60
2018-08-28T00:56:29.830Z,14.60
2018-08-28T00:58:58.507Z,14.50
2018-08-28T01:01:26.628Z,14.50
2018-08-28T01:03:54.745Z,14.50
2018-08-28T01:06:22.857Z,14.40
2018-08-28T01:08:50.945Z,14.30
2018-08-28T01:11:19.713Z,14.30
2018-08-28T01:13:47.901Z,14.40
2018-08-28T01:16:16.515Z,14.30
2018-08-28T01:18:44.643Z,14.30
2018-08-28T01:21:12.746Z,14.30
2018-08-28T01:23:41.712Z,14.30
2018-08-28T01:26:10.143Z,14.30
2018-08-28T01:28:38.286Z,14.30
2018-08-28T01:31:06.728Z,14.30
2018-08-28T01:33:35.313Z,14.30
2018-08-28T01:36:03.402Z,14.30
2018-08-28T01:38:31.798Z,14.40
2018-08-28T01:41:00.592Z,14.40
2018-08-28T01:43:31.322Z,14.30
2018-08-28T01:46:00.022Z,14.30
2018-08-28T01:48:28.383Z,14.30
2018-08-28T01:50:57.529Z,14.30
2018-08-28T01:53:25.892Z,14.30
2018-08-28T01:55:54.042Z,14.30
2018-08-28T01:58:22.710Z,14.30
2018-08-28T02:00:51.291Z,14.30
2018-08-28T02:03:19.458Z,14.20
2018-08-28T02:05:47.560Z,14.20
2018-08-28T02:08:16.138Z,14.20
2018-08-28T02:10:44.296Z,14.10
2018-08-28T02:13:12.473Z,14.10
2018-08-28T02:15:41.146Z,14.10
2018-08-28T02:18:09.322Z,14.10
2018-08-28T02:20:37.438Z,14.00
2018-08-28T02:23:05.917Z,14.00
2018-08-28T02:25:34.103Z,13.90
2018-08-28T02:28:02.778Z,13.90
2018-08-28T02:30:31.475Z,13.70
2018-08-28T02:32:59.586Z,13.70
2018-08-28T02:35:27.711Z,13.60
2018-08-28T02:37:56.547Z,13.50
2018-08-28T02:40:24.814Z,13.40
2018-08-28T02:42:52.939Z,13.20
2018-08-28T02:45:22.282Z,13.10
2018-08-28T02:47:50.848Z,13.00
2018-08-28T02:50:19.004Z,13.00
2018-08-28T02:52:47.199Z,13.00
2018-08-28T02:55:15.572Z,12.90
2018-08-28T02:57:43.672Z,12.90
2018-08-28T03:00:12.247Z,12.90
2018-08-28T03:02:40.977Z,12.90
2018-08-28T03:05:09.127Z,12.90
2018-08-28T03:07:37.320Z,12.90
2018-08-28T03:10:06.468Z,12.90
2018-08-28T03:12:35.279Z,12.90
2018-08-28T03:15:03.738Z,12.80
2018-08-28T03:17:33.329Z,12.80
2018-08-28T03:20:01.970Z,12.70
2018-08-28T03:22:32.491Z,12.60
2018-08-28T03:25:00.870Z,12.60
2018-08-28T03:27:31.025Z,12.60
2018-08-28T03:30:00.745Z,12.50
2018-08-28T03:32:29.542Z,12.50
2018-08-28T03:34:59.413Z,12.40
2018-08-28T03:37:29.730Z,12.40
2018-08-28T03:39:58.045Z,12.30
2018-08-28T03:42:26.395Z,12.20
2018-08-28T03:44:56.013Z,12.10
2018-08-28T03:47:25.673Z,12.00
2018-08-28T03:49:53.864Z,11.80
2018-08-28T03:52:22.183Z,11.70
2018-08-28T03:54:51.727Z,11.70
2018-08-28T03:57:21.275Z,11.70
2018-08-28T03:59:51.092Z,11.60
2018-08-28T04:02:19.445Z,11.50
2018-08-28T04:04:48.677Z,11.40
2018-08-28T04:07:16.984Z,11.40
2018-08-28T04:09:45.235Z,11.30
2018-08-28T04:12:13.523Z,11.30
2018-08-28T04:14:43.730Z,11.20
2018-08-28T04:17:12.854Z,11.10
2018-08-28T04:19:42.056Z,11.00
2018-08-28T04:22:10.368Z,10.90
2018-08-28T04:24:38.727Z,10.80
2018-08-28T04:27:07.789Z,10.80
2018-08-28T04:29:36.231Z,10.60
2018-08-28T04:32:04.595Z,10.60
2018-08-28T04:34:33.828Z,10.60
2018-08-28T04:37:03.320Z,10.60
2018-08-28T04:39:31.992Z,10.60
2018-08-28T04:42:00.781Z,10.60
2018-08-28T04:44:29.064Z,10.50
2018-08-28T04:46:58.065Z,10.50
2018-08-28T04:49:26.359Z,10.50
2018-08-28T04:51:54.472Z,10.60
2018-08-28T04:54:22.893Z,10.50
2018-08-28T04:56:51.981Z,10.40
2018-08-28T04:59:20.996Z,10.40
2018-08-28T05:01:49.096Z,10.50
2018-08-28T05:04:17.222Z,10.50
2018-08-28T05:06:45.803Z,10.50
2018-08-28T05:09:14.535Z,10.50
2018-08-28T05:11:43.737Z,10.50
2018-08-28T05:14:11.798Z,10.50
2018-08-28T05:16:39.944Z,10.50
2018-08-28T05:19:08.071Z,10.60
2018-08-28T05:21:36.178Z,10.60
2018-08-28T05:24:04.318Z,10.80
2018-08-28T05:26:33.238Z,10.90
2018-08-28T05:29:02.809Z,10.90
2018-08-28T05:31:30.986Z,10.90
2018-08-28T05:33:59.096Z,11.00
2018-08-28T05:36:27.228Z,11.10
2018-08-28T05:38:55.366Z,11.20
2018-08-28T05:41:24.326Z,11.20
2018-08-28T05:43:52.469Z,11.40
2018-08-28T05:46:20.878Z,11.50
2018-08-28T05:48:49.852Z,11.70
2018-08-28T05:51:18.222Z,11.80
2018-08-28T05:53:47.243Z,12.00
2018-08-28T05:56:15.442Z,12.40
2018-08-28T05:58:43.758Z,13.00
2018-08-28T06:01:11.935Z,13.40
2018-08-28T06:03:40.434Z,13.80
2018-08-28T06:06:09.351Z,14.00
2018-08-28T06:08:37.843Z,14.20
2018-08-28T06:11:06.035Z,14.40
2018-08-28T06:13:35.762Z,14.60
2018-08-28T06:16:03.862Z,14.80
2018-08-28T06:18:32.252Z,14.90
2018-08-28T06:21:00.690Z,15.10
2018-08-28T06:23:28.833Z,15.30
2018-08-28T06:25:57.359Z,15.60
2018-08-28T06:28:26.048Z,16.40
2018-08-28T06:30:54.171Z,17.10
2018-08-28T06:33:23.102Z,17.70
2018-08-28T06:35:51.271Z,18.10
2018-08-28T06:38:19.406Z,18.70
2018-08-28T06:40:47.560Z,19.10
2018-08-28T06:43:15.815Z,19.30
2018-08-28T06:45:44.120Z,19.90
2018-08-28T06:48:12.290Z,19.90
2018-08-28T06:50:40.635Z,19.80
2018-08-28T06:53:09.298Z,19.90
2018-08-28T06:55:37.391Z,20.80
2018-08-28T06:58:05.611Z,20.30
2018-08-28T07:00:34.570Z,19.70
2018-08-28T07:03:03.099Z,19.50
2018-08-28T07:05:31.405Z,19.50
2018-08-28T07:07:59.773Z,19.70
2018-08-28T07:10:27.894Z,19.90
2018-08-28T07:12:56.091Z,20.80
2018-08-28T07:15:24.854Z,20.80
2018-08-28T07:17:53.721Z,20.90
2018-08-28T07:20:21.855Z,21.00
2018-08-28T07:22:50.045Z,21.60
2018-08-28T07:25:18.653Z,22.10
2018-08-28T07:27:46.863Z,21.60
2018-08-28T07:30:14.992Z,21.70
2018-08-28T07:32:43.716Z,21.90
2018-08-28T07:35:12.333Z,21.80
2018-08-28T07:37:40.591Z,22.60
2018-08-28T07:40:09.567Z,23.20
2018-08-28T07:42:38.103Z,23.80
2018-08-28T07:45:06.442Z,24.10
2018-08-28T07:47:34.538Z,23.90
2018-08-28T07:50:02.938Z,23.70
2018-08-28T07:52:31.559Z,24.30
2018-08-28T07:54:59.657Z,24.50
2018-08-28T07:57:27.818Z,24.90
2018-08-28T07:59:56.203Z,25.00
2018-08-28T08:02:25.182Z,24.70
2018-08-28T08:04:53.892Z,24.70
2018-08-28T08:07:22.004Z,24.80
2018-08-28T08:09:50.126Z,25.20
2018-08-28T08:12:18.788Z,25.40
2018-08-28T08:14:47.058Z,24.70
2018-08-28T08:17:19.326Z,23.70
2018-08-28T08:19:47.446Z,22.80
2018-08-28T08:22:16.187Z,22.40
2018-08-28T08:24:44.985Z,21.90
2018-08-28T08:27:13.263Z,22.10
2018-08-28T08:29:41.361Z,22.40
2018-08-28T08:32:10.105Z,22.20
2018-08-28T08:34:38.222Z,21.90
2018-08-28T08:37:07.062Z,22.00
2018-08-28T08:39:35.218Z,22.30
2018-08-28T08:42:03.503Z,22.70
2018-08-28T08:44:32.003Z,23.00
2018-08-28T08:47:00.303Z,23.20
2018-08-28T08:49:28.533Z,22.10
2018-08-28T08:51:57.039Z,21.70
2018-08-28T08:54:25.282Z,21.50
2018-08-28T08:56:53.406Z,21.80
2018-08-28T08:59:21.883Z,22.10
2018-08-28T09:01:50.008Z,22.00
2018-08-28T09:04:18.541Z,22.20
2018-08-28T09:06:46.774Z,22.60
2018-08-28T09:09:14.910Z,24.00
2018-08-28T09:11:43.817Z,24.80
2018-08-28T09:14:12.692Z,26.20
2018-08-28T09:16:40.789Z,27.40
2018-08-28T09:19:08.946Z,25.90
2018-08-28T09:21:37.575Z,25.00
2018-08-28T09:24:05.827Z,24.30
2018-08-28T09:26:34.466Z,23.50
2018-08-28T09:29:02.594Z,22.90
2018-08-28T09:31:32.275Z,22.30
2018-08-28T09:34:00.771Z,22.10
2018-08-28T09:36:28.967Z,21.80
2018-08-28T09:38:57.335Z,22.10
2018-08-28T09:41:25.531Z,22.30
2018-08-28T09:43:53.716Z,22.70
2018-08-28T09:46:22.022Z,23.60
2018-08-28T09:48:50.807Z,24.40
2018-08-28T09:51:18.975Z,24.80
2018-08-28T09:53:47.086Z,26.30
2018-08-28T09:56:15.879Z,26.40
2018-08-28T09:58:44.074Z,23.90
2018-08-28T10:01:17.766Z,23.30
2018-08-28T10:03:48.248Z,23.10
2018-08-28T10:06:16.563Z,23.30
2018-08-28T10:08:44.891Z,23.10
2018-08-28T10:11:13.007Z,22.60
2018-08-28T10:13:41.122Z,22.70
2018-08-28T10:16:09.570Z,22.30
2018-08-28T10:18:37.762Z,22.50
2018-08-28T10:21:06.210Z,22.30
2018-08-28T10:23:34.315Z,22.70
2018-08-28T10:26:02.474Z,23.10
2018-08-28T10:28:31.019Z,23.10
2018-08-28T10:30:59.388Z,23.70
2018-08-28T10:33:33.227Z,23.90
2018-08-28T10:36:01.544Z,25.00
2018-08-28T10:38:29.772Z,26.70
2018-08-28T10:40:58.242Z,25.70
2018-08-28T10:43:26.341Z,24.60
2018-08-28T10:45:54.446Z,24.00
2018-08-28T10:48:22.541Z,24.00
2018-08-28T10:50:50.655Z,24.10
2018-08-28T10:53:18.759Z,24.30
2018-08-28T10:55:46.874Z,25.20
2018-08-28T10:58:14.981Z,25.10
2018-08-28T11:00:43.090Z,24.70
2018-08-28T11:03:11.784Z,24.40
2018-08-28T11:05:40.646Z,24.90
2018-08-28T11:08:08.823Z,24.10
2018-08-28T11:10:36.930Z,24.40
2018-08-28T11:13:05.310Z,25.90
2018-08-28T11:15:33.844Z,26.10
2018-08-28T11:18:01.951Z,25.30
2018-08-28T11:20:30.058Z,25.60
2018-08-28T11:22:58.288Z,26.00
2018-08-28T11:25:26.315Z,26.60
2018-08-28T11:27:55.550Z,26.60
2018-08-28T11:30:23.673Z,26.40
2018-08-28T11:32:51.857Z,26.50
2018-08-28T11:35:20.402Z,26.80
2018-08-28T11:37:49.060Z,27.60
2018-08-28T11:40:17.465Z,27.70
2018-08-28T11:42:46.066Z,27.70
2018-08-28T11:45:14.561Z,27.40
2018-08-28T11:47:43.024Z,28.20
2018-08-28T11:50:11.482Z,27.60
2018-08-28T11:52:48.095Z,28.30
2018-08-28T11:55:16.299Z,28.40
2018-08-28T11:57:44.601Z,28.60
2018-08-28T12:00:14.245Z,29.30
2018-08-28T12:02:42.508Z,28.80
2018-08-28T12:05:10.836Z,27.60
2018-08-28T12:07:40.069Z,27.60
2018-08-28T12:10:09.057Z,27.40
2018-08-28T12:12:38.326Z,27.10
2018-08-28T12:15:07.073Z,27.50
2018-08-28T12:17:35.543Z,27.30
2018-08-28T12:20:04.686Z,27.50
2018-08-28T12:22:33.187Z,28.30
2018-08-28T12:25:01.336Z,28.40
2018-08-28T12:27:29.770Z,26.80
2018-08-28T12:29:57.880Z,26.00
2018-08-28T12:32:25.974Z,25.50
2018-08-28T12:34:54.294Z,25.40
2018-08-28T12:37:22.736Z,25.40
2018-08-28T12:39:50.880Z,26.30
2018-08-28T12:42:19.003Z,27.10
2018-08-28T12:44:47.687Z,27.60
2018-08-28T12:47:15.823Z,27.30
2018-08-28T12:49:44.007Z,26.60
2018-08-28T12:52:13.009Z,27.10
2018-08-28T12:54:41.281Z,27.30
2018-08-28T12:57:09.754Z,27.20
2018-08-28T12:59:37.876Z,26.70
2018-08-28T13:02:06.236Z,26.90
2018-08-28T13:04:34.469Z,27.30
2018-08-28T13:07:02.610Z,27.30
2018-08-28T13:09:30.937Z,27.30
2018-08-28T13:11:59.223Z,27.60
2018-08-28T13:14:27.623Z,27.50
2018-08-28T13:16:55.758Z,27.30
2018-08-28T13:19:23.866Z,27.00
2018-08-28T13:21:52.077Z,26.80
2018-08-28T13:24:20.247Z,26.80
2018-08-28T13:26:48.350Z,26.60
2018-08-28T13:29:16.544Z,26.80
2018-08-28T13:31:44.761Z,26.90
2018-08-28T13:34:13.029Z,26.60
2018-08-28T13:36:41.318Z,26.30
2018-08-28T13:39:10.170Z,26.40
2018-08-28T13:41:38.261Z,26.60
2018-08-28T13:44:06.454Z,26.70
2018-08-28T13:46:34.730Z,25.80
2018-08-28T13:49:02.858Z,26.00
2018-08-28T13:51:31.125Z,25.60
2018-08-28T13:53:59.368Z,25.30
2018-08-28T13:56:27.611Z,25.60
2018-08-28T13:58:56.364Z,26.10
2018-08-28T14:01:24.442Z,26.00
2018-08-28T14:03:52.550Z,26.10
2018-08-28T14:06:21.118Z,25.80
2018-08-28T14:08:52.103Z,25.90
2018-08-28T14:11:20.210Z,25.80
2018-08-28T14:13:48.431Z,25.60
2018-08-28T14:16:16.617Z,25.50
2018-08-28T14:18:44.814Z,25.40
2018-08-28T14:21:13.238Z,25.30
2018-08-28T14:23:41.345Z,25.40
2018-08-28T14:26:09.446Z,25.30
2018-08-28T14:28:38.005Z,25.40
2018-08-28T14:31:06.347Z,25.40
2018-08-28T14:33:34.450Z,25.20
2018-08-28T14:36:02.741Z,25.20
2018-08-28T14:38:30.848Z,24.60
2018-08-28T14:40:58.941Z,24.70
2018-08-28T14:43:27.140Z,24.80
2018-08-28T14:45:55.354Z,24.70
2018-08-28T14:48:23.465Z,24.60
2018-08-28T14:50:51.902Z,24.60
2018-08-28T14:53:20.069Z,24.60
2018-08-28T14:55:48.199Z,24.60
2018-08-28T14:58:16.361Z,24.60
2018-08-28T15:00:44.724Z,24.70
2018-08-28T15:03:12.913Z,24.80
2018-08-28T15:05:41.021Z,24.50
2018-08-28T15:08:09.355Z,24.40
2018-08-28T15:10:37.700Z,24.30
2018-08-28T15:13:05.874Z,24.40
2018-08-28T15:15:33.978Z,24.10
2018-08-28T15:18:02.478Z,24.00
2018-08-28T15:20:30.598Z,24.20
2018-08-28T15:22:58.702Z,24.30
2018-08-28T15:25:26.798Z,24.20
2018-08-28T15:27:54.926Z,24.10
2018-08-28T15:30:23.018Z,24.10
2018-08-28T15:32:51.248Z,24.00
2018-08-28T15:35:19.267Z,24.10
2018-08-28T15:37:47.615Z,24.30
2018-08-28T15:40:15.697Z,24.30
2018-08-28T15:42:43.800Z,24.20
2018-08-28T15:45:11.917Z,24.30
2018-08-28T15:47:40.115Z,24.00
2018-08-28T15:50:08.348Z,24.00
2018-08-28T15:52:36.623Z,23.80
2018-08-28T15:55:05.491Z,23.70
2018-08-28T15:57:33.662Z,23.60
2018-08-28T16:00:01.896Z,23.60
2018-08-28T16:02:30.023Z,23.60
2018-08-28T16:04:58.146Z,23.70
2018-08-28T16:07:26.238Z,23.70
2018-08-28T16:09:54.325Z,23.60
2018-08-28T16:12:22.542Z,23.60
2018-08-28T16:14:50.687Z,23.70
2018-08-28T16:17:18.774Z,23.70
2018-08-28T16:19:47.093Z,23.60
2018-08-28T16:22:18.068Z,23.50
2018-08-28T16:24:46.243Z,23.50
2018-08-28T16:27:14.342Z,23.50
2018-08-28T16:29:52.273Z,23.50
2018-08-28T16:32:20.319Z,23.40
2018-08-28T16:34:48.442Z,23.30
2018-08-28T16:37:16.596Z,23.30
2018-08-28T16:39:44.824Z,23.30
2018-08-28T16:42:12.921Z,23.20
2018-08-28T16:44:41.040Z,23.10
2018-08-28T16:47:09.142Z,23.10
2018-08-28T16:49:37.284Z,23.10
2018-08-28T16:52:05.632Z,23.10
2018-08-28T16:54:33.723Z,23.00
2018-08-28T16:57:01.903Z,22.90
2018-08-28T16:59:30.094Z,23.00
2018-08-28T17:01:58.276Z,22.80
2018-08-28T17:04:26.314Z,22.80
2018-08-28T17:06:55.514Z,22.80
2018-08-28T17:09:23.921Z,22.70
2018-08-28T17:11:52.274Z,22.60
2018-08-28T17:14:20.479Z,22.60
2018-08-28T17:16:48.806Z,22.50
2018-08-28T17:19:17.263Z,22.50
2018-08-28T17:21:45.339Z,22.40
2018-08-28T17:24:13.478Z,22.30
2018-08-28T17:26:41.577Z,22.20
2018-08-28T17:29:09.674Z,22.20
2018-08-28T17:31:37.775Z,22.10
2018-08-28T17:34:06.066Z,22.00
2018-08-28T17:36:34.170Z,22.00
2018-08-28T17:39:02.314Z,21.90
2018-08-28T17:41:30.451Z,21.80
2018-08-28T17:43:58.591Z,21.80
2018-08-28T17:46:26.702Z,21.70
2018-08-28T17:48:54.937Z,21.50
2018-08-28T17:51:22.998Z,21.30
2018-08-28T17:53:51.189Z,21.10
2018-08-28T17:56:19.315Z,20.90
2018-08-28T17:58:47.514Z,20.80
2018-08-28T18:01:15.671Z,20.50
2018-08-28T18:03:43.791Z,20.40
2018-08-28T18:06:11.878Z,20.20
2018-08-28T18:08:40.074Z,19.90
2018-08-28T18:11:08.218Z,19.70
2018-08-28T18:13:36.590Z,19.60
2018-08-28T18:16:04.787Z,19.40
2018-08-28T18:18:32.974Z,19.10
2018-08-28T18:21:01.165Z,18.90
2018-08-28T18:23:29.307Z,18.70
2018-08-28T18:25:57.485Z,18.50
2018-08-28T18:28:25.667Z,18.30
2018-08-28T18:30:53.819Z,18.10
2018-08-28T18:33:21.991Z,18.00
2018-08-28T18:35:52.174Z,17.90
2018-08-28T18:38:20.229Z,17.70
2018-08-28T18:40:48.430Z,17.60
2018-08-28T18:43:16.519Z,17.40
2018-08-28T18:45:44.610Z,17.20
2018-08-28T18:48:12.730Z,17.00
2018-08-28T18:50:40.841Z,16.90
2018-08-28T18:53:08.979Z,16.70
2018-08-28T18:55:37.086Z,16.60
2018-08-28T18:58:05.214Z,16.50
2018-08-28T19:00:33.302Z,16.30
2018-08-28T19:03:01.629Z,16.20
2018-08-28T19:05:29.609Z,16.10
2018-08-28T19:07:57.754Z,16.00
2018-08-28T19:10:25.851Z,15.90
2018-08-28T19:12:53.978Z,15.80
2018-08-28T19:15:22.087Z,15.70
2018-08-28T19:17:50.262Z,15.60
2018-08-28T19:20:18.387Z,15.50
2018-08-28T19:22:46.524Z,15.40
2018-08-28T19:25:14.617Z,15.30
2018-08-28T19:27:42.726Z,15.10
2018-08-28T19:30:10.829Z,15.10
2018-08-28T19:32:39.005Z,15.00
2018-08-28T19:35:07.199Z,14.80
2018-08-28T19:37:35.313Z,14.80
2018-08-28T19:40:03.391Z,14.80
2018-08-28T19:42:34.000Z,14.70
2018-08-28T19:45:02.098Z,14.60
2018-08-28T19:47:30.194Z,14.60
2018-08-28T19:49:58.375Z,14.50
2018-08-28T19:52:30.402Z,14.30
2018-08-28T19:54:58.509Z,14.20
2018-08-28T19:57:26.727Z,14.10
2018-08-28T19:59:54.955Z,14.10
2018-08-28T20:02:23.076Z,14.00
2018-08-28T20:04:51.233Z,13.90
2018-08-28T20:07:19.336Z,13.90
2018-08-28T20:09:47.491Z,13.80
2018-08-28T20:12:15.595Z,13.70
2018-08-28T20:14:43.778Z,13.70
2018-08-28T20:17:11.921Z,13.70
2018-08-28T20:19:56.619Z,13.60
2018-08-28T20:22:24.807Z,13.60
2018-08-28T20:24:53.110Z,13.50
2018-08-28T20:27:22.159Z,13.40
2018-08-28T20:29:50.362Z,13.40
2018-08-28T20:32:18.541Z,13.30
2018-08-28T20:34:46.742Z,13.30
2018-08-28T20:37:15.060Z,13.20
2018-08-28T20:39:43.234Z,13.10
2018-08-28T20:42:11.427Z,13.10
2018-08-28T20:44:39.594Z,13.10
2018-08-28T20:47:07.751Z,13.10
2018-08-28T20:49:35.968Z,13.10
2018-08-28T20:52:07.988Z,13.00
2018-08-28T20:54:36.186Z,12.80
2018-08-28T20:57:04.387Z,12.80
2018-08-28T20:59:32.603Z,12.80
2018-08-28T21:02:01.647Z,12.70
2018-08-28T21:04:29.842Z,12.60
2018-08-28T21:06:58.142Z,12.70
2018-08-28T21:09:26.266Z,12.50
2018-08-28T21:11:54.476Z,12.40
2018-08-28T21:14:22.650Z,12.40
2018-08-28T21:16:50.852Z,12.40
2018-08-28T21:19:21.087Z,12.40
2018-08-28T21:21:49.285Z,12.30
2018-08-28T21:24:19.487Z,12.20
2018-08-28T21:26:47.667Z,12.10
2018-08-28T21:29:15.857Z,12.10
2018-08-28T21:31:43.970Z,12.00
2018-08-28T21:34:12.091Z,12.00
2018-08-28T21:36:40.280Z,12.00
2018-08-28T21:39:08.396Z,12.10
2018-08-28T21:41:36.537Z,12.10
2018-08-28T21:44:04.667Z,12.00
2018-08-28T21:46:32.773Z,11.90
2018-08-28T21:49:00.977Z,11.80
2018-08-28T21:51:30.062Z,11.70
2018-08-28T21:53:58.234Z,11.60
2018-08-28T21:56:26.387Z,11.50
2018-08-28T21:58:54.554Z,11.50
2018-08-28T22:01:22.716Z,11.40
2018-08-28T22:03:50.893Z,11.40
2018-08-28T22:06:24.502Z,11.40
2018-08-28T22:08:52.770Z,11.40
2018-08-28T22:11:20.935Z,11.30
2018-08-28T22:13:49.092Z,11.30
2018-08-28T22:16:17.262Z,11.20
2018-08-28T22:18:45.484Z,11.20
2018-08-28T22:21:13.671Z,11.20
2018-08-28T22:23:41.846Z,11.10
2018-08-28T22:26:10.030Z,11.00
2018-08-28T22:28:38.214Z,10.90
2018-08-28T22:31:06.424Z,10.90
2018-08-28T22:33:34.576Z,10.90
2018-08-28T22:36:02.692Z,10.90
2018-08-28T22:38:30.870Z,10.80
2018-08-28T22:40:59.032Z,10.90
2018-08-28T22:43:27.214Z,10.70
2018-08-28T22:45:55.383Z,10.70
2018-08-28T22:48:23.528Z,10.70
2018-08-28T22:50:51.694Z,10.60
2018-08-28T22:53:19.855Z,10.70
2018-08-28T22:55:47.999Z,10.70
2018-08-28T22:58:16.144Z,10.50
2018-08-28T23:00:44.280Z,10.40
2018-08-28T23:03:12.424Z,10.40
2018-08-28T23:05:43.663Z,10.50
2018-08-28T23:08:11.812Z,10.40
2018-08-28T23:10:39.995Z,10.40
2018-08-28T23:13:08.131Z,10.50
2018-08-28T23:15:36.261Z,10.50
2018-08-28T23:18:04.608Z,10.40
2018-08-28T23:20:41.185Z,10.40
2018-08-28T23:23:09.351Z,10.40
2018-08-28T23:25:37.463Z,10.40
2018-08-28T23:28:05.655Z,10.30
2018-08-28T23:30:33.901Z,10.30
2018-08-28T23:33:02.102Z,10.30
2018-08-28T23:35:30.254Z,10.20
2018-08-28T23:37:58.379Z,10.20
2018-08-28T23:40:26.563Z,10.20
2018-08-28T23:42:54.727Z,10.20
2018-08-28T23:45:22.968Z,10.20
2018-08-28T23:47:51.135Z,10.20
2018-08-28T23:50:19.261Z,10.10
2018-08-28T23:52:47.426Z,10.10
2018-08-28T23:55:15.646Z,10.00
2018-08-28T23:57:43.763Z,9.90
